Terminal Aerodrome Forecast
Issued by NWS

Home | Current Version | Previous Version | Graphics & Text | Print | Product List | Glossary On
Versions: 1 2 3 4 5 6 7 8 9 10 11 12 13 14 15 16 17 18 19 20 21 22
536
FTUS43 KBIS 101520 AAA
TAFDIK
TAF AMD
KDIK 101520Z 1015/1112 28014G19KT P6SM BKN120
     FM101700 28017G26KT P6SM BKN140
     FM110000 28014KT P6SM SKC
     FM110500 29021G32KT P6SM FEW045
     FM110900 30024G36KT P6SM -SHSN BKN020 OVC035=

USA.gov is the U.S. government's official web portal to all federal, state and local government web resources and services.